Time;durP1;ratioP1;P1;durP2;ratioP2;P2;SDS_P1;SDS_P2;PMS_P1;PMS_P2;Temp;Humidity;BMP_temperature;BMP_pressure;BME280_temperature;BME280_humidity;BME280_pressure;Samples;Min_cycle;Max_cycle;Signal;HPM_P1;HPM_P2
2023/07/24 00:01:17;;;;;;;3.33;1.40;;;18.20;99.90;;;;;;4994230;28;20049;-52
2023/07/24 00:03:42;;;;;;;2.67;1.45;;;18.20;99.90;;;;;;4993765;28;20027;-51
2023/07/24 00:06:08;;;;;;;4.22;1.58;;;18.20;99.90;;;;;;4995648;28;20085;-53
2023/07/24 00:08:33;;;;;;;3.75;1.98;;;18.10;99.90;;;;;;4995214;28;20026;-52
2023/07/24 00:10:59;;;;;;;5.20;2.15;;;18.10;99.90;;;;;;4994171;28;20034;-52
2023/07/24 00:13:25;;;;;;;3.80;2.13;;;18.10;99.90;;;;;;4995158;28;20030;-53
2023/07/24 00:15:51;;;;;;;3.55;1.70;;;18.10;99.90;;;;;;4995560;28;20037;-53
2023/07/24 00:18:17;;;;;;;3.50;1.85;;;18.10;99.90;;;;;;4995445;28;20498;-52
2023/07/24 00:20:42;;;;;;;3.78;1.88;;;18.10;99.90;;;;;;4994067;28;20030;-53
2023/07/24 00:23:08;;;;;;;5.07;2.28;;;18.10;99.90;;;;;;4994713;28;20325;-50
2023/07/24 00:25:33;;;;;;;3.92;1.88;;;18.10;99.90;;;;;;4995194;28;20035;-53
2023/07/24 00:27:59;;;;;;;3.97;2.10;;;18.10;99.90;;;;;;4993872;28;20034;-54
2023/07/24 00:30:25;;;;;;;3.72;2.00;;;18.00;99.90;;;;;;4995341;28;20054;-54
2023/07/24 00:32:50;;;;;;;3.97;2.13;;;18.10;99.90;;;;;;4993338;28;20030;-54
2023/07/24 00:35:16;;;;;;;4.20;2.20;;;18.10;99.90;;;;;;4994003;28;20042;-54
2023/07/24 00:37:41;;;;;;;3.17;1.80;;;18.10;99.90;;;;;;4995246;28;20105;-54
2023/07/24 00:40:08;;;;;;;4.07;1.95;;;18.10;99.90;;;;;;4993781;28;20038;-50
2023/07/24 00:42:33;;;;;;;5.00;2.33;;;18.10;99.90;;;;;;4993627;28;20567;-54
2023/07/24 00:44:59;;;;;;;3.65;2.00;;;18.10;99.90;;;;;;4995099;28;20113;-53
2023/07/24 00:47:26;;;;;;;4.50;1.90;;;18.10;99.90;;;;;;4993898;28;20030;-49
2023/07/24 00:49:53;;;;;;;6.75;1.77;;;18.10;99.90;;;;;;4993432;28;20026;-54
2023/07/24 00:52:19;;;;;;;4.20;1.83;;;18.10;99.90;;;;;;4993561;28;20044;-52
2023/07/24 00:54:46;;;;;;;3.17;2.05;;;18.00;99.90;;;;;;4994884;28;20398;-54
2023/07/24 00:57:13;;;;;;;3.58;1.85;;;18.00;99.90;;;;;;4995058;28;20092;-56
2023/07/24 00:59:39;;;;;;;4.40;2.10;;;18.00;99.90;;;;;;4993440;28;20058;-51
2023/07/24 01:02:05;;;;;;;3.70;1.98;;;18.10;99.90;;;;;;4993263;28;20034;-53
2023/07/24 01:04:31;;;;;;;2.92;1.75;;;18.00;99.90;;;;;;4992889;28;20503;-53
2023/07/24 01:06:57;;;;;;;4.78;2.20;;;18.00;99.90;;;;;;4993477;28;20125;-51
2023/07/24 01:09:22;;;;;;;4.15;1.92;;;18.10;99.90;;;;;;4994343;28;20545;-55
2023/07/24 01:12:06;;;;;;;4.47;2.40;;;18.10;99.90;;;;;;4993862;28;20034;-53
2023/07/24 01:14:44;;;;;;;4.38;2.33;;;18.00;99.90;;;;;;4993671;28;20034;-53
2023/07/24 01:17:14;;;;;;;3.30;1.85;;;18.00;99.90;;;;;;4993300;28;20092;-53
2023/07/24 01:19:48;;;;;;;4.70;2.00;;;18.00;99.90;;;;;;4993660;28;20034;-54
2023/07/24 01:22:29;;;;;;;5.63;2.15;;;17.90;99.90;;;;;;4993082;28;20030;-51
2023/07/24 01:25:14;;;;;;;6.22;2.35;;;17.90;99.90;;;;;;4992891;28;20034;-53
2023/07/24 01:27:42;;;;;;;5.05;2.22;;;17.80;99.90;;;;;;4992987;28;20041;-52
2023/07/24 01:30:08;;;;;;;4.35;1.98;;;17.80;99.90;;;;;;4993144;28;20045;-54
2023/07/24 01:32:34;;;;;;;5.80;1.83;;;17.80;99.90;;;;;;4993132;28;20438;-54
2023/07/24 01:35:00;;;;;;;5.20;2.15;;;17.80;99.90;;;;;;4994672;28;20030;-53
2023/07/24 01:37:26;;;;;;;3.83;2.00;;;17.80;99.90;;;;;;4992991;28;20061;-54
2023/07/24 01:39:53;;;;;;;3.78;2.05;;;17.80;99.90;;;;;;4993850;28;20112;-51
2023/07/24 01:42:19;;;;;;;4.45;2.63;;;17.80;99.90;;;;;;4992376;28;20436;-53
2023/07/24 01:44:44;;;;;;;4.22;1.73;;;17.80;99.90;;;;;;4992948;28;20061;-54
2023/07/24 01:47:10;;;;;;;3.97;2.03;;;17.80;99.90;;;;;;4977023;28;20033;-54
2023/07/24 01:49:37;;;;;;;5.68;2.38;;;17.80;99.90;;;;;;4992977;28;20494;-53
2023/07/24 01:52:03;;;;;;;4.13;2.20;;;17.80;99.90;;;;;;4992662;28;20034;-54
2023/07/24 01:54:28;;;;;;;4.45;2.15;;;17.80;99.90;;;;;;4993027;28;20077;-53
2023/07/24 01:56:54;;;;;;;4.93;2.20;;;17.80;99.90;;;;;;4993504;28;20026;-52
2023/07/24 01:59:20;;;;;;;4.53;2.17;;;17.70;99.90;;;;;;4993077;28;20685;-53
2023/07/24 02:01:45;;;;;;;4.03;2.30;;;17.80;99.90;;;;;;4993161;28;20038;-53
2023/07/24 02:04:11;;;;;;;4.78;2.30;;;17.80;99.90;;;;;;4994967;28;20073;-52
2023/07/24 02:06:38;;;;;;;4.25;2.00;;;17.80;99.90;;;;;;4994927;28;20027;-51
2023/07/24 02:09:04;;;;;;;3.78;2.05;;;17.80;99.90;;;;;;4993052;28;20309;-55
2023/07/24 02:11:30;;;;;;;6.53;2.40;;;17.80;99.90;;;;;;4994250;28;20041;-52
2023/07/24 02:13:55;;;;;;;4.75;2.05;;;17.80;99.90;;;;;;4993464;28;20034;-52
2023/07/24 02:16:21;;;;;;;4.35;2.15;;;17.80;99.90;;;;;;4993671;28;20122;-52
2023/07/24 02:18:46;;;;;;;7.20;2.88;;;17.90;99.90;;;;;;4992025;28;20034;-50
2023/07/24 02:21:13;;;;;;;4.30;2.10;;;18.00;99.90;;;;;;4992305;28;20411;-53
2023/07/24 02:23:39;;;;;;;4.13;2.00;;;18.00;99.90;;;;;;4993061;28;20036;-52
2023/07/24 02:26:04;;;;;;;4.35;1.90;;;18.10;99.90;;;;;;4994407;28;20034;-52
2023/07/24 02:28:30;;;;;;;4.25;2.08;;;18.10;99.90;;;;;;4992398;28;20034;-53
2023/07/24 02:30:56;;;;;;;5.70;2.45;;;18.20;99.90;;;;;;4992379;28;20065;-53
2023/07/24 02:33:24;;;;;;;3.60;2.08;;;18.20;99.90;;;;;;4992867;28;20057;-53
2023/07/24 02:35:52;;;;;;;4.60;2.67;;;18.20;99.90;;;;;;4992248;28;20038;-53
2023/07/24 02:38:18;;;;;;;4.40;2.25;;;18.20;99.90;;;;;;4991864;28;20057;-53
2023/07/24 02:40:44;;;;;;;4.03;2.10;;;18.20;99.90;;;;;;4991526;28;20026;-49
2023/07/24 02:43:10;;;;;;;5.00;2.47;;;18.30;99.90;;;;;;4992777;28;20498;-54
2023/07/24 02:45:38;;;;;;;3.97;2.35;;;18.20;99.90;;;;;;4992911;28;20395;-52
2023/07/24 02:48:05;;;;;;;4.68;2.28;;;18.20;99.90;;;;;;4992861;28;20034;-51
2023/07/24 02:50:30;;;;;;;5.07;2.35;;;18.30;99.90;;;;;;4995417;28;20069;-54
2023/07/24 02:52:56;;;;;;;4.43;2.20;;;18.20;99.90;;;;;;4995157;28;20077;-51
2023/07/24 02:55:22;;;;;;;4.53;2.45;;;18.20;99.90;;;;;;4995542;28;20056;-52
2023/07/24 02:57:47;;;;;;;4.60;2.70;;;18.30;99.90;;;;;;4996703;28;20026;-54
2023/07/24 03:00:13;;;;;;;3.97;2.35;;;18.30;99.90;;;;;;4996754;28;20044;-53
2023/07/24 03:02:39;;;;;;;5.55;2.50;;;18.20;99.90;;;;;;4994952;28;20030;-51
2023/07/24 03:05:05;;;;;;;6.03;2.75;;;18.20;99.90;;;;;;4996666;28;20033;-53
2023/07/24 03:07:32;;;;;;;8.07;2.53;;;18.20;99.90;;;;;;4995416;28;20038;-52
2023/07/24 03:09:57;;;;;;;5.63;2.20;;;18.20;99.90;;;;;;4996566;28;20035;-53
2023/07/24 03:12:23;;;;;;;4.75;2.33;;;18.30;99.90;;;;;;4995263;28;20044;-51
2023/07/24 03:14:49;;;;;;;5.75;3.03;;;18.20;99.90;;;;;;4994723;28;20069;-52
2023/07/24 03:17:14;;;;;;;4.93;2.45;;;18.20;99.90;;;;;;4995313;28;20035;-52
2023/07/24 03:19:41;;;;;;;5.70;2.55;;;18.20;99.90;;;;;;4994990;28;20042;-53
2023/07/24 03:22:07;;;;;;;6.13;2.72;;;18.30;99.90;;;;;;4996124;28;20061;-54
2023/07/24 03:24:33;;;;;;;5.55;2.70;;;18.20;99.90;;;;;;4994826;28;20471;-54
2023/07/24 03:27:00;;;;;;;4.30;2.08;;;18.10;99.90;;;;;;4994771;28;20503;-53
2023/07/24 03:29:26;;;;;;;5.88;3.17;;;18.10;99.90;;;;;;4995042;28;20031;-53
2023/07/24 03:31:52;;;;;;;6.78;2.95;;;18.10;99.90;;;;;;4996441;28;20459;-52
2023/07/24 03:34:17;;;;;;;6.25;2.50;;;18.10;99.90;;;;;;4994397;28;20030;-51
2023/07/24 03:36:43;;;;;;;5.78;3.08;;;18.00;99.90;;;;;;4994668;28;20049;-52
2023/07/24 03:39:11;;;;;;;8.02;2.72;;;18.00;99.90;;;;;;4996408;28;20031;-51
2023/07/24 03:41:39;;;;;;;5.88;2.60;;;18.00;99.90;;;;;;4996104;28;20086;-49
2023/07/24 03:44:04;;;;;;;6.80;2.55;;;18.00;99.90;;;;;;4995645;28;20106;-52
2023/07/24 03:46:32;;;;;;;7.30;3.10;;;18.00;99.90;;;;;;4994789;28;20075;-52
2023/07/24 03:48:57;;;;;;;5.32;2.97;;;18.00;99.90;;;;;;4995855;28;20108;-53
2023/07/24 03:51:23;;;;;;;6.78;3.25;;;17.90;99.90;;;;;;4995546;28;20070;-55
2023/07/24 03:53:49;;;;;;;5.15;3.00;;;17.90;99.90;;;;;;4995439;28;20038;-55
2023/07/24 03:56:14;;;;;;;4.45;2.55;;;17.90;99.90;;;;;;4995789;28;20040;-50
2023/07/24 03:58:40;;;;;;;5.82;2.85;;;17.90;99.90;;;;;;4995709;28;20038;-52
2023/07/24 04:01:06;;;;;;;5.90;2.90;;;17.90;99.90;;;;;;4994650;28;20034;-51
2023/07/24 04:03:32;;;;;;;6.25;2.85;;;17.90;99.90;;;;;;4994200;28;20073;-52
2023/07/24 04:05:57;;;;;;;5.00;2.90;;;17.90;99.90;;;;;;4995736;28;20019;-52
2023/07/24 04:08:23;;;;;;;5.03;2.80;;;17.90;99.90;;;;;;4995664;28;20115;-53
2023/07/24 04:10:49;;;;;;;4.43;2.65;;;17.90;99.90;;;;;;4995649;28;20038;-54
2023/07/24 04:13:14;;;;;;;5.28;2.70;;;17.90;99.90;;;;;;4995791;28;20030;-54
2023/07/24 04:15:40;;;;;;;5.80;2.88;;;18.00;99.90;;;;;;4995272;28;20393;-53
2023/07/24 04:18:05;;;;;;;8.05;2.90;;;18.00;99.90;;;;;;4995426;28;20372;-53
2023/07/24 04:20:31;;;;;;;6.57;3.05;;;17.90;99.90;;;;;;4995560;28;20475;-52
2023/07/24 04:22:57;;;;;;;6.88;3.03;;;17.90;99.90;;;;;;4995010;28;20022;-54
2023/07/24 04:25:22;;;;;;;6.47;3.13;;;17.90;99.90;;;;;;4995729;28;20383;-55
2023/07/24 04:27:48;;;;;;;5.25;2.53;;;18.00;99.90;;;;;;4995829;28;20118;-54
2023/07/24 04:30:14;;;;;;;7.03;3.38;;;18.00;99.90;;;;;;4995999;28;20027;-53
2023/07/24 04:32:40;;;;;;;6.25;2.83;;;18.00;99.90;;;;;;4993561;28;20371;-53
2023/07/24 04:35:06;;;;;;;7.03;2.78;;;17.90;99.90;;;;;;4995134;28;20061;-53
2023/07/24 04:37:31;;;;;;;7.20;2.75;;;17.90;99.90;;;;;;4993450;28;20030;-50
2023/07/24 04:39:57;;;;;;;6.00;2.53;;;17.90;99.90;;;;;;4993808;28;20034;-53
2023/07/24 04:42:23;;;;;;;5.47;2.60;;;17.90;99.90;;;;;;4994602;28;20030;-53
2023/07/24 04:44:50;;;;;;;7.10;3.03;;;17.90;99.90;;;;;;4994106;28;20505;-54
2023/07/24 04:47:15;;;;;;;7.25;3.13;;;17.80;99.90;;;;;;4994830;28;20071;-54
2023/07/24 04:49:41;;;;;;;6.47;2.97;;;17.80;99.90;;;;;;4994553;28;20078;-55
2023/07/24 04:52:07;;;;;;;6.97;2.95;;;17.80;99.90;;;;;;4994230;28;20041;-50
2023/07/24 04:54:32;;;;;;;7.28;3.05;;;17.80;99.90;;;;;;4994540;28;20444;-53
2023/07/24 04:56:58;;;;;;;7.35;2.95;;;17.80;99.90;;;;;;4994541;28;20058;-53
2023/07/24 04:59:23;;;;;;;5.30;2.70;;;17.80;99.90;;;;;;4994168;28;20045;-50
2023/07/24 05:01:49;;;;;;;6.43;2.90;;;17.80;99.90;;;;;;4994216;28;20175;-50
2023/07/24 05:04:15;;;;;;;7.22;3.10;;;17.80;99.90;;;;;;4993637;28;20032;-55
2023/07/24 05:06:41;;;;;;;7.03;3.03;;;17.80;99.90;;;;;;4994302;28;20387;-52
2023/07/24 05:09:06;;;;;;;5.78;2.90;;;17.80;99.90;;;;;;4993029;28;20117;-55
2023/07/24 05:11:32;;;;;;;6.10;3.10;;;17.90;99.90;;;;;;4993563;28;20410;-53
2023/07/24 05:13:58;;;;;;;4.75;2.80;;;17.90;99.90;;;;;;4993817;28;20041;-55
2023/07/24 05:16:23;;;;;;;5.60;2.78;;;17.90;99.90;;;;;;4994079;28;20085;-55
2023/07/24 05:18:49;;;;;;;6.90;3.20;;;17.90;99.90;;;;;;4992696;28;20034;-54
2023/07/24 05:21:14;;;;;;;9.00;2.92;;;17.90;99.90;;;;;;4994131;28;20438;-49
2023/07/24 05:23:40;;;;;;;8.90;3.53;;;17.90;99.90;;;;;;4993890;28;20030;-52
2023/07/24 05:26:06;;;;;;;9.02;4.05;;;17.90;99.90;;;;;;4994400;28;20030;-52
2023/07/24 05:28:32;;;;;;;8.52;4.50;;;17.90;99.90;;;;;;4993770;28;20076;-53
2023/07/24 05:31:05;;;;;;;7.22;3.95;;;18.00;99.90;;;;;;4994024;28;20026;-50
2023/07/24 05:33:31;;;;;;;11.32;4.50;;;18.00;99.90;;;;;;4993547;28;20041;-54
2023/07/24 05:36:04;;;;;;;10.30;4.15;;;18.00;99.90;;;;;;4993992;28;20030;-52
2023/07/24 05:38:30;;;;;;;10.00;4.07;;;18.00;99.90;;;;;;4993968;28;20033;-51
2023/07/24 05:41:01;;;;;;;8.55;4.22;;;18.00;99.90;;;;;;4993926;28;20085;-55
2023/07/24 05:43:28;;;;;;;11.80;4.38;;;18.00;99.90;;;;;;4993461;28;20030;-52
2023/07/24 05:45:55;;;;;;;10.32;5.03;;;18.00;99.90;;;;;;4993899;28;20146;-54
2023/07/24 05:48:20;;;;;;;8.65;3.72;;;18.00;99.90;;;;;;4994087;28;20061;-55
2023/07/24 05:50:47;;;;;;;12.20;5.60;;;18.10;99.90;;;;;;4993613;28;20035;-53
2023/07/24 05:53:13;;;;;;;8.88;4.45;;;18.10;99.90;;;;;;4992921;28;20035;-54
2023/07/24 05:55:39;;;;;;;15.68;6.88;;;18.20;99.90;;;;;;4993278;28;20077;-51
2023/07/24 05:58:04;;;;;;;14.57;7.63;;;18.30;99.90;;;;;;4993556;28;20030;-54
2023/07/24 06:00:30;;;;;;;7.28;3.63;;;18.40;99.90;;;;;;4993389;28;20034;-54
2023/07/24 06:02:55;;;;;;;6.55;3.17;;;18.40;99.90;;;;;;4991184;28;20042;-51
2023/07/24 06:05:21;;;;;;;7.95;4.53;;;18.50;99.90;;;;;;4993650;28;20026;-51
2023/07/24 06:07:47;;;;;;;8.02;3.97;;;18.40;99.90;;;;;;4993460;28;20026;-53
2023/07/24 06:10:13;;;;;;;9.38;4.20;;;18.50;99.90;;;;;;4993400;28;20542;-54
2023/07/24 06:12:38;;;;;;;9.10;4.13;;;18.50;99.90;;;;;;4992959;28;20380;-54
2023/07/24 06:15:04;;;;;;;16.70;7.20;;;18.50;99.90;;;;;;4992947;28;20034;-53
2023/07/24 06:17:30;;;;;;;12.85;6.38;;;18.50;99.90;;;;;;4993572;28;20041;-53
2023/07/24 06:19:57;;;;;;;9.75;3.38;;;18.40;99.90;;;;;;4993484;28;20133;-53
2023/07/24 06:22:23;;;;;;;6.72;3.03;;;18.40;99.90;;;;;;4993026;28;20554;-52
2023/07/24 06:24:49;;;;;;;6.72;3.40;;;18.50;99.90;;;;;;4996783;28;20045;-53
2023/07/24 06:27:15;;;;;;;6.40;2.75;;;18.50;99.90;;;;;;4996008;28;20030;-55
2023/07/24 06:29:40;;;;;;;7.20;3.25;;;18.60;99.90;;;;;;4996992;28;20026;-55
2023/07/24 06:32:07;;;;;;;7.47;3.50;;;18.60;99.90;;;;;;4996788;28;20053;-55
2023/07/24 06:34:33;;;;;;;10.55;4.53;;;18.60;99.90;;;;;;4997045;28;20058;-52
2023/07/24 06:36:59;;;;;;;6.55;3.40;;;18.70;99.90;;;;;;4996971;28;20073;-54
2023/07/24 06:39:24;;;;;;;6.18;2.80;;;18.60;99.90;;;;;;4996536;28;20084;-54
2023/07/24 06:41:53;;;;;;;5.68;3.45;;;18.60;99.90;;;;;;4996875;28;20042;-54
2023/07/24 06:44:20;;;;;;;8.20;4.25;;;18.50;99.90;;;;;;4996198;28;20038;-54
2023/07/24 06:46:45;;;;;;;6.90;3.00;;;18.60;99.90;;;;;;4996633;28;20065;-54
2023/07/24 06:49:11;;;;;;;7.93;3.85;;;18.60;99.90;;;;;;4995263;28;20270;-54
2023/07/24 06:51:38;;;;;;;9.45;5.43;;;18.70;99.90;;;;;;4996868;28;20038;-55
2023/07/24 06:54:04;;;;;;;6.28;3.72;;;18.80;99.90;;;;;;4996803;28;20042;-52
2023/07/24 06:56:31;;;;;;;8.90;4.45;;;18.80;99.90;;;;;;4996665;28;20420;-55
2023/07/24 06:58:56;;;;;;;7.68;3.70;;;19.00;99.90;;;;;;4996429;28;20446;-51
2023/07/24 07:01:22;;;;;;;10.07;4.57;;;19.10;99.90;;;;;;4995939;28;20042;-53
2023/07/24 07:03:47;;;;;;;6.45;3.08;;;19.10;99.90;;;;;;4995920;28;20031;-54
2023/07/24 07:06:13;;;;;;;6.95;3.15;;;19.20;99.90;;;;;;4996396;28;20030;-52
2023/07/24 07:08:39;;;;;;;8.10;3.00;;;19.10;99.90;;;;;;4996289;28;20036;-51
2023/07/24 07:11:04;;;;;;;8.07;2.75;;;19.10;99.90;;;;;;4996586;28;20541;-50
2023/07/24 07:13:30;;;;;;;9.45;3.10;;;19.00;99.90;;;;;;4995750;28;20026;-52
2023/07/24 07:15:56;;;;;;;6.50;3.17;;;19.00;99.90;;;;;;4995991;28;20451;-53
2023/07/24 07:18:21;;;;;;;4.65;2.30;;;19.00;99.90;;;;;;4996175;28;20109;-52
2023/07/24 07:20:52;;;;;;;5.00;2.70;;;18.90;99.90;;;;;;4996194;28;20026;-52
2023/07/24 07:23:18;;;;;;;7.28;2.80;;;18.90;99.90;;;;;;4995640;28;20122;-50
2023/07/24 07:25:45;;;;;;;7.22;2.80;;;18.80;99.90;;;;;;4997090;28;20034;-49
2023/07/24 07:28:14;;;;;;;5.05;2.35;;;18.80;99.90;;;;;;4996226;28;20030;-49
2023/07/24 07:30:41;;;;;;;5.63;2.53;;;18.80;99.90;;;;;;4996950;28;20026;-48
2023/07/24 07:33:07;;;;;;;8.20;4.18;;;18.80;99.90;;;;;;4995082;28;20041;-50
2023/07/24 07:35:33;;;;;;;5.40;2.78;;;18.90;99.90;;;;;;4995166;28;20399;-48
2023/07/24 07:37:59;;;;;;;6.72;3.35;;;18.90;99.90;;;;;;4995690;28;20065;-52
2023/07/24 07:40:26;;;;;;;9.10;3.80;;;18.90;99.90;;;;;;4996202;28;20117;-54
2023/07/24 07:42:53;;;;;;;9.02;3.25;;;18.90;99.90;;;;;;4978959;28;20125;-52
2023/07/24 07:45:19;;;;;;;8.75;3.78;;;19.00;99.90;;;;;;4996715;28;20502;-50
2023/07/24 07:47:44;;;;;;;11.23;4.15;;;18.90;99.90;;;;;;4996618;28;20054;-54
2023/07/24 07:50:10;;;;;;;6.63;3.60;;;18.80;99.90;;;;;;4995847;28;20037;-53
2023/07/24 07:52:36;;;;;;;7.32;3.50;;;18.80;99.90;;;;;;4996742;28;20031;-50
2023/07/24 07:55:02;;;;;;;7.70;3.70;;;18.80;99.90;;;;;;4996456;28;20031;-48
2023/07/24 07:57:28;;;;;;;5.95;3.03;;;18.70;99.90;;;;;;4996914;28;20045;-50
2023/07/24 07:59:53;;;;;;;6.82;3.45;;;18.70;99.90;;;;;;4995271;28;20042;-52
2023/07/24 08:02:19;;;;;;;5.25;2.47;;;18.80;99.90;;;;;;4995550;28;20038;-51
2023/07/24 08:04:45;;;;;;;6.25;3.58;;;18.80;99.90;;;;;;4994432;28;20042;-51
2023/07/24 08:07:10;;;;;;;6.78;3.25;;;18.80;99.90;;;;;;4996509;28;20023;-52
2023/07/24 08:09:37;;;;;;;6.63;1.92;;;18.80;99.90;;;;;;4996448;28;20110;-52
2023/07/24 08:12:04;;;;;;;8.75;4.45;;;18.90;99.90;;;;;;4995753;28;20029;-53
2023/07/24 08:14:30;;;;;;;5.28;2.58;;;19.10;99.90;;;;;;4995580;28;20092;-49
2023/07/24 08:16:55;;;;;;;7.38;2.67;;;19.30;99.90;;;;;;4995852;28;20041;-50
2023/07/24 08:19:21;;;;;;;6.75;2.72;;;19.40;99.90;;;;;;4996157;28;20096;-52
2023/07/24 08:21:47;;;;;;;5.18;2.30;;;19.50;99.90;;;;;;4995564;28;20034;-51
2023/07/24 08:24:13;;;;;;;8.07;4.13;;;19.50;99.90;;;;;;4993727;28;20026;-51
2023/07/24 08:26:38;;;;;;;6.75;3.13;;;19.60;99.90;;;;;;4994072;28;20044;-54
2023/07/24 08:29:05;;;;;;;4.30;2.20;;;19.60;99.90;;;;;;4995656;28;20396;-53
2023/07/24 08:31:30;;;;;;;5.38;2.92;;;19.60;99.90;;;;;;4995210;28;20512;-54
2023/07/24 08:33:56;;;;;;;5.03;2.08;;;19.50;99.90;;;;;;4993998;28;20038;-51
2023/07/24 08:36:22;;;;;;;2.78;1.73;;;19.40;99.90;;;;;;4995096;28;20129;-51
2023/07/24 08:38:47;;;;;;;5.13;2.15;;;19.40;99.90;;;;;;4994921;28;20121;-52
2023/07/24 08:41:14;;;;;;;3.05;1.88;;;19.40;99.90;;;;;;4995220;28;20054;-49
2023/07/24 08:43:42;;;;;;;3.40;1.90;;;19.50;99.90;;;;;;4994431;28;20026;-53
2023/07/24 08:46:08;;;;;;;4.30;1.63;;;19.60;99.90;;;;;;4993833;28;20034;-51
2023/07/24 08:48:39;;;;;;;2.88;1.80;;;19.80;99.90;;;;;;4995044;28;20030;-51
2023/07/24 08:51:06;;;;;;;4.50;2.60;;;19.90;99.90;;;;;;4994389;28;20030;-53
2023/07/24 08:53:36;;;;;;;3.72;2.30;;;20.00;99.90;;;;;;4994295;28;20062;-54
2023/07/24 08:56:04;;;;;;;3.20;1.70;;;20.20;99.90;;;;;;4994643;28;20038;-52
2023/07/24 08:58:29;;;;;;;4.13;2.30;;;20.40;99.90;;;;;;4994454;28;20125;-50
2023/07/24 09:00:57;;;;;;;4.78;2.55;;;20.60;99.90;;;;;;4994641;28;20065;-52
2023/07/24 09:03:23;;;;;;;3.10;1.48;;;20.50;99.90;;;;;;4994244;28;20454;-55
2023/07/24 09:05:48;;;;;;;4.47;1.85;;;20.60;99.90;;;;;;4994116;28;20061;-53
2023/07/24 09:08:14;;;;;;;5.93;2.83;;;20.60;99.90;;;;;;4994400;28;20018;-53
2023/07/24 09:10:40;;;;;;;3.95;1.75;;;20.70;99.90;;;;;;4994475;28;20475;-53
2023/07/24 09:13:07;;;;;;;4.25;1.60;;;20.70;99.90;;;;;;4993464;28;20034;-54
2023/07/24 09:15:44;;;;;;;2.75;1.58;;;20.70;99.90;;;;;;4994126;28;20124;-52
2023/07/24 09:18:11;;;;;;;4.22;2.10;;;20.70;99.90;;;;;;4994056;28;20034;-53
2023/07/24 09:20:41;;;;;;;3.55;1.58;;;20.60;99.90;;;;;;4994374;28;20057;-53
2023/07/24 09:23:08;;;;;;;5.65;3.25;;;20.60;99.90;;;;;;4993668;28;20036;-52
2023/07/24 09:25:35;;;;;;;4.70;2.65;;;20.50;99.90;;;;;;4993878;28;20026;-54
2023/07/24 09:28:00;;;;;;;3.05;1.90;;;20.40;99.90;;;;;;4994077;28;20121;-54
2023/07/24 09:30:26;;;;;;;4.22;2.17;;;20.20;99.90;;;;;;4993036;28;20122;-53
2023/07/24 09:32:53;;;;;;;6.07;2.63;;;20.20;99.90;;;;;;4993333;28;20038;-53
2023/07/24 09:35:20;;;;;;;4.88;2.40;;;20.10;99.90;;;;;;4993628;28;20030;-54
2023/07/24 09:37:46;;;;;;;5.18;2.72;;;20.00;99.90;;;;;;4993617;28;20034;-54
2023/07/24 09:40:14;;;;;;;6.13;3.03;;;20.00;99.90;;;;;;4992585;28;20030;-53
2023/07/24 09:42:40;;;;;;;9.55;3.65;;;19.90;99.90;;;;;;4993567;28;20117;-54
2023/07/24 09:45:10;;;;;;;4.80;2.35;;;20.00;99.90;;;;;;4993403;28;20582;-54
2023/07/24 09:47:36;;;;;;;4.80;2.63;;;20.10;99.90;;;;;;4993440;28;20113;-54
2023/07/24 09:50:05;;;;;;;4.93;2.55;;;20.20;99.90;;;;;;4993603;28;20062;-54
2023/07/24 09:52:31;;;;;;;6.68;2.95;;;20.20;99.90;;;;;;4993325;28;20038;-53
2023/07/24 09:55:32;;;;;;;3.60;1.52;;;20.20;99.90;;;;;;4992239;28;20113;-54
2023/07/24 09:58:00;;;;;;;3.13;1.77;;;20.30;99.90;;;;;;4980797;28;20042;-54
2023/07/24 10:00:26;;;;;;;3.92;1.90;;;20.20;99.90;;;;;;4993735;28;20435;-52
2023/07/24 10:02:52;;;;;;;6.13;2.38;;;20.30;99.90;;;;;;4993319;28;20034;-55
2023/07/24 10:05:18;;;;;;;5.82;2.40;;;20.30;99.90;;;;;;4993720;28;20105;-54
2023/07/24 10:07:44;;;;;;;3.25;1.80;;;20.40;99.90;;;;;;4993558;28;20445;-54
2023/07/24 10:10:10;;;;;;;3.45;1.92;;;20.50;99.90;;;;;;4993363;28;20478;-52
2023/07/24 10:12:37;;;;;;;4.97;2.53;;;20.60;99.90;;;;;;4993076;28;20038;-52
2023/07/24 10:15:03;;;;;;;4.03;1.95;;;20.60;99.90;;;;;;4992777;28;20088;-54
2023/07/24 10:17:39;;;;;;;5.35;2.90;;;20.60;99.90;;;;;;4993227;28;20038;-52
2023/07/24 10:20:10;;;;;;;3.58;2.08;;;20.70;99.90;;;;;;4992909;28;20065;-52
2023/07/24 10:22:37;;;;;;;2.97;1.75;;;20.80;99.90;;;;;;4993012;28;20446;-55
2023/07/24 10:25:04;;;;;;;5.05;2.90;;;20.90;99.90;;;;;;4993210;28;20030;-54
2023/07/24 10:27:30;;;;;;;11.23;3.72;;;20.90;99.90;;;;;;4993150;28;20158;-53
2023/07/24 10:30:03;;;;;;;6.40;3.42;;;20.90;99.90;;;;;;4992790;28;20117;-52
2023/07/24 10:32:28;;;;;;;6.85;3.17;;;20.80;99.90;;;;;;4993083;28;20030;-53
2023/07/24 10:35:09;;;;;;;4.18;2.30;;;20.80;99.90;;;;;;4992716;28;20053;-54
2023/07/24 10:37:38;;;;;;;5.95;2.47;;;20.70;99.90;;;;;;4993470;28;20491;-54
2023/07/24 10:40:18;;;;;;;4.97;2.63;;;20.60;99.90;;;;;;4993655;28;20034;-52
2023/07/24 10:42:43;;;;;;;3.65;1.95;;;20.40;99.90;;;;;;4992880;28;20042;-53
2023/07/24 10:45:10;;;;;;;6.88;2.70;;;20.00;99.90;;;;;;4992063;28;20042;-53
2023/07/24 10:47:36;;;;;;;5.07;2.63;;;19.90;99.90;;;;;;4993003;28;20446;-53
2023/07/24 10:50:02;;;;;;;5.65;2.75;;;19.80;99.90;;;;;;4991612;28;20022;-54
2023/07/24 10:52:34;;;;;;;4.40;2.40;;;19.70;99.90;;;;;;4993106;28;20038;-52
2023/07/24 10:55:02;;;;;;;4.60;2.45;;;19.60;99.90;;;;;;4992799;28;20038;-53
2023/07/24 10:57:29;;;;;;;6.15;3.28;;;19.60;99.90;;;;;;4993413;28;20526;-52
2023/07/24 10:59:54;;;;;;;4.28;2.60;;;19.60;99.90;;;;;;4993076;28;20479;-49
2023/07/24 11:02:21;;;;;;;4.93;2.85;;;19.50;99.90;;;;;;4993048;28;20043;-53
2023/07/24 11:04:47;;;;;;;4.50;2.30;;;19.40;99.90;;;;;;4993769;28;20034;-50
2023/07/24 11:07:13;;;;;;;7.72;4.38;;;19.30;99.90;;;;;;4991248;28;20038;-50
2023/07/24 11:09:40;;;;;;;5.25;2.40;;;19.30;99.90;;;;;;4993644;28;20052;-52
2023/07/24 11:12:13;;;;;;;8.18;4.43;;;19.10;99.90;;;;;;4995946;28;20117;-54
2023/07/24 11:14:49;;;;;;;6.53;3.17;;;19.00;99.90;;;;;;4995820;28;20145;-50
2023/07/24 11:17:15;;;;;;;11.32;6.22;;;18.90;99.90;;;;;;4996077;28;20562;-54
2023/07/24 11:19:41;;;;;;;6.43;3.40;;;18.90;99.90;;;;;;4996491;28;20066;-52
2023/07/24 11:22:07;;;;;;;5.93;2.53;;;18.80;99.90;;;;;;4996385;28;20034;-52
2023/07/24 11:24:33;;;;;;;7.95;3.63;;;18.70;99.90;;;;;;4995870;28;20085;-51
2023/07/24 11:26:58;;;;;;;5.85;3.13;;;18.60;99.90;;;;;;4995097;28;20023;-54
2023/07/24 11:29:24;;;;;;;4.55;2.92;;;18.50;99.90;;;;;;4996502;28;20483;-52
2023/07/24 11:31:56;;;;;;;8.95;4.47;;;18.40;99.90;;;;;;4995090;28;20113;-50
2023/07/24 11:34:22;;;;;;;9.57;4.35;;;18.30;99.90;;;;;;4995985;28;20438;-52
2023/07/24 11:36:49;;;;;;;6.07;3.47;;;18.20;99.90;;;;;;4996197;28;20034;-50
2023/07/24 11:39:22;;;;;;;6.03;2.75;;;18.20;99.90;;;;;;4996342;28;20026;-49
2023/07/24 11:41:48;;;;;;;5.50;2.80;;;18.10;99.90;;;;;;4996339;28;20037;-51
2023/07/24 11:44:16;;;;;;;5.00;3.00;;;18.10;99.90;;;;;;4994684;28;20030;-49
2023/07/24 11:46:43;;;;;;;9.95;3.72;;;18.10;99.90;;;;;;4996589;28;20026;-49
2023/07/24 11:49:09;;;;;;;4.60;2.55;;;18.00;99.90;;;;;;4994871;28;20030;-51
2023/07/24 11:51:37;;;;;;;5.50;2.90;;;18.00;99.90;;;;;;4996048;28;20076;-52
2023/07/24 11:54:11;;;;;;;5.25;2.50;;;18.10;99.90;;;;;;4994997;28;20081;-50
2023/07/24 11:56:37;;;;;;;6.70;2.97;;;18.20;99.90;;;;;;4994240;28;20049;-54
2023/07/24 11:59:13;;;;;;;5.72;2.83;;;18.20;99.90;;;;;;4995621;28;20026;-52
2023/07/24 12:01:39;;;;;;;8.73;4.57;;;18.20;99.90;;;;;;4995329;28;20042;-51
2023/07/24 12:04:05;;;;;;;8.35;4.05;;;18.20;99.90;;;;;;4995013;28;20027;-54
2023/07/24 12:06:31;;;;;;;9.98;5.57;;;18.30;99.90;;;;;;4995488;28;20027;-53
2023/07/24 12:09:07;;;;;;;5.57;2.80;;;18.40;99.90;;;;;;4995721;28;20502;-52
2023/07/24 12:11:32;;;;;;;9.10;4.07;;;18.60;99.90;;;;;;4995200;28;20486;-53
2023/07/24 12:13:58;;;;;;;5.90;2.28;;;18.70;99.90;;;;;;4994786;28;20073;-53
2023/07/24 12:16:24;;;;;;;10.60;5.30;;;18.90;99.90;;;;;;4995108;28;20046;-53
2023/07/24 12:18:49;;;;;;;4.53;2.50;;;19.10;99.90;;;;;;4993782;28;20087;-53
2023/07/24 12:21:15;;;;;;;6.55;3.90;;;19.10;99.90;;;;;;4994213;28;20026;-52
2023/07/24 12:23:41;;;;;;;4.13;2.40;;;19.10;99.90;;;;;;4994196;28;20065;-54
2023/07/24 12:26:07;;;;;;;4.30;2.05;;;19.10;99.90;;;;;;4993653;28;20049;-52
2023/07/24 12:28:33;;;;;;;4.50;2.53;;;19.00;99.90;;;;;;4993739;28;20045;-52
2023/07/24 12:30:58;;;;;;;5.25;1.95;;;18.90;99.90;;;;;;4993949;28;20038;-53
2023/07/24 12:33:24;;;;;;;4.68;2.25;;;18.90;99.90;;;;;;4994161;28;20030;-52
2023/07/24 12:35:50;;;;;;;5.32;2.78;;;18.60;99.90;;;;;;4993728;28;20022;-52
2023/07/24 12:38:16;;;;;;;3.30;1.70;;;18.40;99.90;;;;;;4994388;28;20038;-49
2023/07/24 12:40:41;;;;;;;2.13;1.20;;;18.30;99.90;;;;;;4994849;28;20081;-52
2023/07/24 12:43:07;;;;;;;6.32;1.45;;;18.30;99.90;;;;;;4993710;28;20383;-52